sensor_id;sensor_type;location;lat;lon;timestamp;P1;durP1;ratioP1;P2;durP2;ratioP2
46505;SDS011;32220;49.808;9.968;2023-05-10T00:02:00;2.53;;;1.70;;
46505;SDS011;32220;49.808;9.968;2023-05-10T00:04:29;1.60;;;1.50;;
46505;SDS011;32220;49.808;9.968;2023-05-10T00:06:57;1.50;;;1.40;;
46505;SDS011;32220;49.808;9.968;2023-05-10T00:09:24;1.30;;;1.20;;
46505;SDS011;32220;49.808;9.968;2023-05-10T00:11:52;1.37;;;1.07;;
46505;SDS011;32220;49.808;9.968;2023-05-10T00:14:20;1.80;;;1.50;;
46505;SDS011;32220;49.808;9.968;2023-05-10T00:16:47;2.27;;;1.67;;
46505;SDS011;32220;49.808;9.968;2023-05-10T00:19:15;1.23;;;1.17;;
46505;SDS011;32220;49.808;9.968;2023-05-10T00:21:43;2.43;;;1.53;;
46505;SDS011;32220;49.808;9.968;2023-05-10T00:24:11;1.30;;;1.20;;
46505;SDS011;32220;49.808;9.968;2023-05-10T00:26:38;1.80;;;1.47;;
46505;SDS011;32220;49.808;9.968;2023-05-10T00:29:08;1.60;;;1.50;;
46505;SDS011;32220;49.808;9.968;2023-05-10T00:31:36;1.50;;;1.40;;
46505;SDS011;32220;49.808;9.968;2023-05-10T00:34:03;1.90;;;1.23;;
46505;SDS011;32220;49.808;9.968;2023-05-10T00:36:31;1.90;;;1.60;;
46505;SDS011;32220;49.808;9.968;2023-05-10T00:39:00;1.50;;;1.40;;
46505;SDS011;32220;49.808;9.968;2023-05-10T00:41:29;2.83;;;1.50;;
46505;SDS011;32220;49.808;9.968;2023-05-10T00:43:59;2.73;;;1.67;;
46505;SDS011;32220;49.808;9.968;2023-05-10T00:46:28;1.50;;;1.40;;
46505;SDS011;32220;49.808;9.968;2023-05-10T00:48:58;1.50;;;1.33;;
46505;SDS011;32220;49.808;9.968;2023-05-10T00:51:26;1.40;;;1.30;;
46505;SDS011;32220;49.808;9.968;2023-05-10T00:53:53;3.57;;;1.60;;
46505;SDS011;32220;49.808;9.968;2023-05-10T00:56:23;2.90;;;1.60;;
46505;SDS011;32220;49.808;9.968;2023-05-10T00:58:52;2.03;;;1.50;;
46505;SDS011;32220;49.808;9.968;2023-05-10T01:01:19;2.27;;;1.60;;
46505;SDS011;32220;49.808;9.968;2023-05-10T01:03:47;2.17;;;1.33;;
46505;SDS011;32220;49.808;9.968;2023-05-10T01:06:15;1.67;;;1.50;;
46505;SDS011;32220;49.808;9.968;2023-05-10T01:08:42;1.47;;;1.37;;
46505;SDS011;32220;49.808;9.968;2023-05-10T01:11:11;1.87;;;1.33;;
46505;SDS011;32220;49.808;9.968;2023-05-10T01:13:41;1.83;;;1.67;;
46505;SDS011;32220;49.808;9.968;2023-05-10T01:16:10;1.50;;;1.40;;
46505;SDS011;32220;49.808;9.968;2023-05-10T01:18:38;1.97;;;1.20;;
46505;SDS011;32220;49.808;9.968;2023-05-10T01:21:13;1.60;;;1.20;;
46505;SDS011;32220;49.808;9.968;2023-05-10T01:24:02;1.33;;;1.23;;
46505;SDS011;32220;49.808;9.968;2023-05-10T01:26:45;1.40;;;1.20;;
46505;SDS011;32220;49.808;9.968;2023-05-10T01:32:41;1.37;;;1.27;;
46505;SDS011;32220;49.808;9.968;2023-05-10T01:35:15;2.73;;;1.30;;
46505;SDS011;32220;49.808;9.968;2023-05-10T01:37:48;1.40;;;1.30;;
46505;SDS011;32220;49.808;9.968;2023-05-10T01:40:19;1.43;;;1.10;;
46505;SDS011;32220;49.808;9.968;2023-05-10T01:42:59;1.10;;;1.07;;
46505;SDS011;32220;49.808;9.968;2023-05-10T01:45:30;1.07;;;1.07;;
46505;SDS011;32220;49.808;9.968;2023-05-10T01:48:06;1.43;;;1.20;;
46505;SDS011;32220;49.808;9.968;2023-05-10T01:50:37;2.03;;;1.20;;
46505;SDS011;32220;49.808;9.968;2023-05-10T01:53:09;1.20;;;1.00;;
46505;SDS011;32220;49.808;9.968;2023-05-10T01:55:39;1.93;;;1.10;;
46505;SDS011;32220;49.808;9.968;2023-05-10T01:58:13;0.93;;;0.93;;
46505;SDS011;32220;49.808;9.968;2023-05-10T02:00:44;0.70;;;0.70;;
46505;SDS011;32220;49.808;9.968;2023-05-10T02:03:14;1.03;;;0.93;;
46505;SDS011;32220;49.808;9.968;2023-05-10T02:05:44;0.77;;;0.77;;
46505;SDS011;32220;49.808;9.968;2023-05-10T02:08:15;0.80;;;0.80;;
46505;SDS011;32220;49.808;9.968;2023-05-10T02:10:44;0.93;;;0.80;;
46505;SDS011;32220;49.808;9.968;2023-05-10T02:13:13;0.60;;;0.60;;
46505;SDS011;32220;49.808;9.968;2023-05-10T02:15:43;2.37;;;0.80;;
46505;SDS011;32220;49.808;9.968;2023-05-10T02:18:15;0.63;;;0.60;;
46505;SDS011;32220;49.808;9.968;2023-05-10T02:20:45;0.70;;;0.70;;
46505;SDS011;32220;49.808;9.968;2023-05-10T02:23:15;0.70;;;0.70;;
46505;SDS011;32220;49.808;9.968;2023-05-10T02:25:44;0.70;;;0.70;;
46505;SDS011;32220;49.808;9.968;2023-05-10T02:28:14;1.43;;;0.60;;
46505;SDS011;32220;49.808;9.968;2023-05-10T02:30:43;0.57;;;0.57;;
46505;SDS011;32220;49.808;9.968;2023-05-10T02:33:11;1.07;;;0.53;;
46505;SDS011;32220;49.808;9.968;2023-05-10T02:35:40;0.50;;;0.50;;
46505;SDS011;32220;49.808;9.968;2023-05-10T02:38:08;0.70;;;0.70;;
46505;SDS011;32220;49.808;9.968;2023-05-10T02:40:37;1.13;;;0.67;;
46505;SDS011;32220;49.808;9.968;2023-05-10T02:43:09;0.83;;;0.70;;
46505;SDS011;32220;49.808;9.968;2023-05-10T02:45:40;0.53;;;0.53;;
46505;SDS011;32220;49.808;9.968;2023-05-10T02:48:09;0.63;;;0.50;;
46505;SDS011;32220;49.808;9.968;2023-05-10T02:50:37;0.50;;;0.50;;
46505;SDS011;32220;49.808;9.968;2023-05-10T02:53:10;1.43;;;0.63;;
46505;SDS011;32220;49.808;9.968;2023-05-10T02:55:42;12.53;;;0.80;;
46505;SDS011;32220;49.808;9.968;2023-05-10T02:58:16;0.57;;;0.57;;
46505;SDS011;32220;49.808;9.968;2023-05-10T03:00:45;0.40;;;0.40;;
46505;SDS011;32220;49.808;9.968;2023-05-10T03:03:13;0.73;;;0.60;;
46505;SDS011;32220;49.808;9.968;2023-05-10T03:05:42;0.50;;;0.50;;
46505;SDS011;32220;49.808;9.968;2023-05-10T03:08:10;0.83;;;0.60;;
46505;SDS011;32220;49.808;9.968;2023-05-10T03:10:40;0.63;;;0.50;;
46505;SDS011;32220;49.808;9.968;2023-05-10T03:13:19;0.77;;;0.50;;
46505;SDS011;32220;49.808;9.968;2023-05-10T03:15:58;0.50;;;0.50;;
46505;SDS011;32220;49.808;9.968;2023-05-10T03:18:33;0.40;;;0.40;;
46505;SDS011;32220;49.808;9.968;2023-05-10T03:21:07;0.43;;;0.40;;
46505;SDS011;32220;49.808;9.968;2023-05-10T03:23:41;0.63;;;0.50;;
46505;SDS011;32220;49.808;9.968;2023-05-10T03:26:12;0.40;;;0.40;;
46505;SDS011;32220;49.808;9.968;2023-05-10T03:28:44;0.40;;;0.40;;
46505;SDS011;32220;49.808;9.968;2023-05-10T03:31:12;1.13;;;0.40;;
46505;SDS011;32220;49.808;9.968;2023-05-10T03:33:45;2.17;;;0.40;;
46505;SDS011;32220;49.808;9.968;2023-05-10T03:36:17;1.13;;;0.30;;
46505;SDS011;32220;49.808;9.968;2023-05-10T03:38:46;0.40;;;0.40;;
46505;SDS011;32220;49.808;9.968;2023-05-10T03:41:14;0.57;;;0.47;;
46505;SDS011;32220;49.808;9.968;2023-05-10T03:43:42;0.33;;;0.33;;
46505;SDS011;32220;49.808;9.968;2023-05-10T03:46:09;0.80;;;0.80;;
46505;SDS011;32220;49.808;9.968;2023-05-10T03:48:37;0.73;;;0.60;;
46505;SDS011;32220;49.808;9.968;2023-05-10T03:51:05;0.43;;;0.43;;
46505;SDS011;32220;49.808;9.968;2023-05-10T03:53:34;1.30;;;0.40;;
46505;SDS011;32220;49.808;9.968;2023-05-10T03:56:02;0.60;;;0.60;;
46505;SDS011;32220;49.808;9.968;2023-05-10T03:58:30;0.73;;;0.30;;
46505;SDS011;32220;49.808;9.968;2023-05-10T04:00:58;0.90;;;0.60;;
46505;SDS011;32220;49.808;9.968;2023-05-10T04:03:26;0.40;;;0.40;;
46505;SDS011;32220;49.808;9.968;2023-05-10T04:05:58;0.70;;;0.43;;
46505;SDS011;32220;49.808;9.968;2023-05-10T04:08:27;0.50;;;0.50;;
46505;SDS011;32220;49.808;9.968;2023-05-10T04:11:05;0.60;;;0.60;;
46505;SDS011;32220;49.808;9.968;2023-05-10T04:13:34;0.50;;;0.50;;
46505;SDS011;32220;49.808;9.968;2023-05-10T04:16:01;2.07;;;0.70;;
46505;SDS011;32220;49.808;9.968;2023-05-10T04:18:30;1.67;;;0.87;;
46505;SDS011;32220;49.808;9.968;2023-05-10T04:20:57;0.93;;;0.70;;
46505;SDS011;32220;49.808;9.968;2023-05-10T04:23:25;0.50;;;0.50;;
46505;SDS011;32220;49.808;9.968;2023-05-10T04:25:58;0.70;;;0.70;;
46505;SDS011;32220;49.808;9.968;2023-05-10T04:28:28;0.93;;;0.60;;
46505;SDS011;32220;49.808;9.968;2023-05-10T04:31:00;0.60;;;0.60;;
46505;SDS011;32220;49.808;9.968;2023-05-10T04:33:28;0.60;;;0.60;;
46505;SDS011;32220;49.808;9.968;2023-05-10T04:35:57;2.03;;;0.60;;
46505;SDS011;32220;49.808;9.968;2023-05-10T04:38:25;1.50;;;0.57;;
46505;SDS011;32220;49.808;9.968;2023-05-10T04:40:53;0.50;;;0.50;;
46505;SDS011;32220;49.808;9.968;2023-05-10T04:43:21;0.50;;;0.50;;
46505;SDS011;32220;49.808;9.968;2023-05-10T04:45:50;0.67;;;0.67;;
46505;SDS011;32220;49.808;9.968;2023-05-10T04:48:18;0.50;;;0.50;;
46505;SDS011;32220;49.808;9.968;2023-05-10T04:50:45;0.50;;;0.50;;
46505;SDS011;32220;49.808;9.968;2023-05-10T04:53:13;0.70;;;0.70;;
46505;SDS011;32220;49.808;9.968;2023-05-10T04:55:41;0.57;;;0.57;;
46505;SDS011;32220;49.808;9.968;2023-05-10T04:58:09;1.43;;;0.77;;
46505;SDS011;32220;49.808;9.968;2023-05-10T05:00:36;1.30;;;0.70;;
46505;SDS011;32220;49.808;9.968;2023-05-10T05:03:06;0.80;;;0.70;;
46505;SDS011;32220;49.808;9.968;2023-05-10T05:05:33;0.93;;;0.70;;
46505;SDS011;32220;49.808;9.968;2023-05-10T05:08:01;0.50;;;0.50;;
46505;SDS011;32220;49.808;9.968;2023-05-10T05:10:29;0.60;;;0.60;;
46505;SDS011;32220;49.808;9.968;2023-05-10T05:12:57;1.33;;;0.80;;
46505;SDS011;32220;49.808;9.968;2023-05-10T05:15:24;0.70;;;0.70;;
46505;SDS011;32220;49.808;9.968;2023-05-10T05:17:52;0.93;;;0.80;;
46505;SDS011;32220;49.808;9.968;2023-05-10T05:20:22;0.67;;;0.67;;
46505;SDS011;32220;49.808;9.968;2023-05-10T05:22:49;0.50;;;0.50;;
46505;SDS011;32220;49.808;9.968;2023-05-10T05:25:17;0.70;;;0.70;;
46505;SDS011;32220;49.808;9.968;2023-05-10T05:27:45;0.70;;;0.70;;
46505;SDS011;32220;49.808;9.968;2023-05-10T05:30:13;0.70;;;0.63;;
46505;SDS011;32220;49.808;9.968;2023-05-10T05:32:40;3.43;;;0.70;;
46505;SDS011;32220;49.808;9.968;2023-05-10T05:35:08;0.80;;;0.80;;
46505;SDS011;32220;49.808;9.968;2023-05-10T05:37:38;0.70;;;0.70;;
46505;SDS011;32220;49.808;9.968;2023-05-10T05:40:06;0.90;;;0.67;;
46505;SDS011;32220;49.808;9.968;2023-05-10T05:42:35;0.83;;;0.70;;
46505;SDS011;32220;49.808;9.968;2023-05-10T05:45:04;1.17;;;0.80;;
46505;SDS011;32220;49.808;9.968;2023-05-10T05:47:34;0.67;;;0.67;;
46505;SDS011;32220;49.808;9.968;2023-05-10T05:50:02;1.50;;;0.77;;
46505;SDS011;32220;49.808;9.968;2023-05-10T05:52:30;0.50;;;0.50;;
46505;SDS011;32220;49.808;9.968;2023-05-10T05:54:59;3.03;;;0.73;;
46505;SDS011;32220;49.808;9.968;2023-05-10T05:57:27;0.63;;;0.60;;
46505;SDS011;32220;49.808;9.968;2023-05-10T05:59:55;2.37;;;0.80;;
46505;SDS011;32220;49.808;9.968;2023-05-10T06:02:22;0.77;;;0.77;;
46505;SDS011;32220;49.808;9.968;2023-05-10T06:04:50;1.70;;;0.90;;
46505;SDS011;32220;49.808;9.968;2023-05-10T06:07:18;0.80;;;0.70;;
46505;SDS011;32220;49.808;9.968;2023-05-10T06:09:46;0.67;;;0.67;;
46505;SDS011;32220;49.808;9.968;2023-05-10T06:12:15;0.60;;;0.60;;
46505;SDS011;32220;49.808;9.968;2023-05-10T06:14:42;1.47;;;0.60;;
46505;SDS011;32220;49.808;9.968;2023-05-10T06:17:10;1.30;;;1.00;;
46505;SDS011;32220;49.808;9.968;2023-05-10T06:19:37;1.00;;;1.00;;
46505;SDS011;32220;49.808;9.968;2023-05-10T06:22:05;1.33;;;0.77;;
46505;SDS011;32220;49.808;9.968;2023-05-10T06:24:33;1.30;;;0.70;;
46505;SDS011;32220;49.808;9.968;2023-05-10T06:27:01;1.07;;;0.70;;
46505;SDS011;32220;49.808;9.968;2023-05-10T06:29:31;1.67;;;0.83;;
46505;SDS011;32220;49.808;9.968;2023-05-10T06:31:59;2.00;;;0.87;;
46505;SDS011;32220;49.808;9.968;2023-05-10T06:34:27;0.70;;;0.70;;
46505;SDS011;32220;49.808;9.968;2023-05-10T06:36:54;1.97;;;1.00;;
46505;SDS011;32220;49.808;9.968;2023-05-10T06:39:22;0.80;;;0.70;;
46505;SDS011;32220;49.808;9.968;2023-05-10T06:41:50;3.20;;;0.90;;
46505;SDS011;32220;49.808;9.968;2023-05-10T06:44:19;0.90;;;0.90;;
46505;SDS011;32220;49.808;9.968;2023-05-10T06:46:48;0.70;;;0.70;;
46505;SDS011;32220;49.808;9.968;2023-05-10T06:49:15;1.37;;;1.10;;
46505;SDS011;32220;49.808;9.968;2023-05-10T06:51:43;0.83;;;0.83;;
46505;SDS011;32220;49.808;9.968;2023-05-10T06:54:11;1.03;;;0.70;;
46505;SDS011;32220;49.808;9.968;2023-05-10T06:56:38;1.80;;;0.80;;
46505;SDS011;32220;49.808;9.968;2023-05-10T06:59:06;3.13;;;1.00;;
46505;SDS011;32220;49.808;9.968;2023-05-10T07:01:34;4.80;;;0.87;;
46505;SDS011;32220;49.808;9.968;2023-05-10T07:04:03;3.70;;;1.13;;
46505;SDS011;32220;49.808;9.968;2023-05-10T07:06:31;1.00;;;0.80;;
46505;SDS011;32220;49.808;9.968;2023-05-10T07:08:59;1.70;;;1.10;;
46505;SDS011;32220;49.808;9.968;2023-05-10T07:11:27;1.13;;;1.00;;
46505;SDS011;32220;49.808;9.968;2023-05-10T07:13:55;0.90;;;0.80;;
46505;SDS011;32220;49.808;9.968;2023-05-10T07:16:22;1.80;;;0.93;;
46505;SDS011;32220;49.808;9.968;2023-05-10T07:18:50;1.20;;;1.10;;
46505;SDS011;32220;49.808;9.968;2023-05-10T07:21:20;2.23;;;1.43;;
46505;SDS011;32220;49.808;9.968;2023-05-10T07:23:49;1.00;;;1.00;;
46505;SDS011;32220;49.808;9.968;2023-05-10T07:26:17;1.73;;;0.93;;
46505;SDS011;32220;49.808;9.968;2023-05-10T07:28:45;1.87;;;1.00;;
46505;SDS011;32220;49.808;9.968;2023-05-10T07:31:12;2.07;;;1.03;;
46505;SDS011;32220;49.808;9.968;2023-05-10T07:33:40;2.00;;;0.97;;
46505;SDS011;32220;49.808;9.968;2023-05-10T07:36:08;1.93;;;1.30;;
46505;SDS011;32220;49.808;9.968;2023-05-10T07:38:37;2.03;;;1.10;;
46505;SDS011;32220;49.808;9.968;2023-05-10T07:41:05;1.97;;;1.00;;
46505;SDS011;32220;49.808;9.968;2023-05-10T07:43:32;1.47;;;1.00;;
46505;SDS011;32220;49.808;9.968;2023-05-10T07:46:00;4.33;;;1.73;;
46505;SDS011;32220;49.808;9.968;2023-05-10T07:48:28;1.37;;;1.17;;
46505;SDS011;32220;49.808;9.968;2023-05-10T07:50:56;1.93;;;1.33;;
46505;SDS011;32220;49.808;9.968;2023-05-10T07:53:25;1.23;;;1.13;;
46505;SDS011;32220;49.808;9.968;2023-05-10T07:55:57;3.60;;;1.50;;
46505;SDS011;32220;49.808;9.968;2023-05-10T07:58:26;1.13;;;1.00;;
46505;SDS011;32220;49.808;9.968;2023-05-10T08:00:53;6.53;;;1.97;;
46505;SDS011;32220;49.808;9.968;2023-05-10T08:03:22;1.57;;;1.00;;
46505;SDS011;32220;49.808;9.968;2023-05-10T08:05:49;1.70;;;1.30;;
46505;SDS011;32220;49.808;9.968;2023-05-10T08:08:17;3.17;;;0.97;;
46505;SDS011;32220;49.808;9.968;2023-05-10T08:10:45;2.20;;;1.20;;
46505;SDS011;32220;49.808;9.968;2023-05-10T08:13:15;1.43;;;1.00;;
46505;SDS011;32220;49.808;9.968;2023-05-10T08:15:42;5.00;;;1.20;;
46505;SDS011;32220;49.808;9.968;2023-05-10T08:18:10;2.27;;;1.07;;
46505;SDS011;32220;49.808;9.968;2023-05-10T08:20:37;1.63;;;1.10;;
46505;SDS011;32220;49.808;9.968;2023-05-10T08:23:05;1.70;;;1.00;;
46505;SDS011;32220;49.808;9.968;2023-05-10T08:25:32;3.10;;;1.23;;
46505;SDS011;32220;49.808;9.968;2023-05-10T08:28:00;2.53;;;1.43;;
46505;SDS011;32220;49.808;9.968;2023-05-10T08:30:30;1.30;;;1.20;;
46505;SDS011;32220;49.808;9.968;2023-05-10T08:32:57;1.47;;;1.30;;
46505;SDS011;32220;49.808;9.968;2023-05-10T08:35:25;2.67;;;1.17;;
46505;SDS011;32220;49.808;9.968;2023-05-10T08:37:52;3.63;;;1.07;;
46505;SDS011;32220;49.808;9.968;2023-05-10T08:40:20;1.07;;;0.90;;
46505;SDS011;32220;49.808;9.968;2023-05-10T08:42:49;2.07;;;1.10;;
46505;SDS011;32220;49.808;9.968;2023-05-10T08:45:22;1.40;;;1.03;;
46505;SDS011;32220;49.808;9.968;2023-05-10T08:47:51;0.73;;;0.73;;
46505;SDS011;32220;49.808;9.968;2023-05-10T08:50:20;1.47;;;1.00;;
46505;SDS011;32220;49.808;9.968;2023-05-10T08:52:48;1.63;;;1.20;;
46505;SDS011;32220;49.808;9.968;2023-05-10T08:55:23;3.27;;;1.20;;
46505;SDS011;32220;49.808;9.968;2023-05-10T08:57:51;2.50;;;0.90;;
46505;SDS011;32220;49.808;9.968;2023-05-10T09:00:19;1.50;;;1.10;;
46505;SDS011;32220;49.808;9.968;2023-05-10T09:02:48;1.27;;;0.80;;
46505;SDS011;32220;49.808;9.968;2023-05-10T09:05:18;1.43;;;1.10;;
46505;SDS011;32220;49.808;9.968;2023-05-10T09:07:46;2.53;;;1.00;;
46505;SDS011;32220;49.808;9.968;2023-05-10T09:10:13;1.73;;;1.43;;
46505;SDS011;32220;49.808;9.968;2023-05-10T09:12:42;3.30;;;1.00;;
46505;SDS011;32220;49.808;9.968;2023-05-10T09:15:11;1.00;;;0.80;;
46505;SDS011;32220;49.808;9.968;2023-05-10T09:17:42;1.50;;;1.10;;
46505;SDS011;32220;49.808;9.968;2023-05-10T09:20:11;1.93;;;1.10;;
46505;SDS011;32220;49.808;9.968;2023-05-10T09:22:40;3.00;;;1.30;;
46505;SDS011;32220;49.808;9.968;2023-05-10T09:25:09;2.37;;;1.20;;
46505;SDS011;32220;49.808;9.968;2023-05-10T09:27:38;2.80;;;1.10;;
46505;SDS011;32220;49.808;9.968;2023-05-10T09:30:07;1.27;;;1.17;;
46505;SDS011;32220;49.808;9.968;2023-05-10T09:32:36;1.40;;;1.30;;
46505;SDS011;32220;49.808;9.968;2023-05-10T09:35:07;2.10;;;1.10;;
46505;SDS011;32220;49.808;9.968;2023-05-10T09:37:36;3.13;;;1.23;;
46505;SDS011;32220;49.808;9.968;2023-05-10T09:40:06;2.33;;;1.37;;
46505;SDS011;32220;49.808;9.968;2023-05-10T09:42:35;1.90;;;1.13;;
46505;SDS011;32220;49.808;9.968;2023-05-10T09:45:03;2.37;;;1.13;;
46505;SDS011;32220;49.808;9.968;2023-05-10T09:47:32;2.17;;;1.40;;
46505;SDS011;32220;49.808;9.968;2023-05-10T09:50:00;3.57;;;1.10;;
46505;SDS011;32220;49.808;9.968;2023-05-10T09:52:31;1.57;;;1.00;;
46505;SDS011;32220;49.808;9.968;2023-05-10T09:55:16;1.87;;;1.00;;
46505;SDS011;32220;49.808;9.968;2023-05-10T09:57:45;2.60;;;1.23;;
46505;SDS011;32220;49.808;9.968;2023-05-10T10:00:18;1.50;;;0.97;;
46505;SDS011;32220;49.808;9.968;2023-05-10T10:02:47;1.63;;;1.10;;
46505;SDS011;32220;49.808;9.968;2023-05-10T10:05:15;1.07;;;0.90;;
46505;SDS011;32220;49.808;9.968;2023-05-10T10:07:43;1.10;;;1.00;;
46505;SDS011;32220;49.808;9.968;2023-05-10T10:10:11;2.03;;;1.20;;
46505;SDS011;32220;49.808;9.968;2023-05-10T10:12:42;1.23;;;1.10;;
46505;SDS011;32220;49.808;9.968;2023-05-10T10:15:10;1.57;;;1.10;;
46505;SDS011;32220;49.808;9.968;2023-05-10T10:17:38;1.40;;;1.20;;
46505;SDS011;32220;49.808;9.968;2023-05-10T10:20:08;2.80;;;1.20;;
46505;SDS011;32220;49.808;9.968;2023-05-10T10:22:37;2.83;;;1.00;;
46505;SDS011;32220;49.808;9.968;2023-05-10T10:25:05;1.90;;;1.13;;
46505;SDS011;32220;49.808;9.968;2023-05-10T10:27:36;1.80;;;0.97;;
46505;SDS011;32220;49.808;9.968;2023-05-10T10:30:17;0.80;;;0.80;;
46505;SDS011;32220;49.808;9.968;2023-05-10T10:35:57;1.23;;;0.90;;
46505;SDS011;32220;49.808;9.968;2023-05-10T10:38:35;1.87;;;1.13;;
46505;SDS011;32220;49.808;9.968;2023-05-10T10:41:09;1.23;;;0.93;;
46505;SDS011;32220;49.808;9.968;2023-05-10T10:43:39;1.60;;;0.90;;
46505;SDS011;32220;49.808;9.968;2023-05-10T10:46:10;1.73;;;1.03;;
46505;SDS011;32220;49.808;9.968;2023-05-10T10:48:40;2.40;;;1.07;;
46505;SDS011;32220;49.808;9.968;2023-05-10T10:51:09;0.90;;;0.83;;
46505;SDS011;32220;49.808;9.968;2023-05-10T10:53:36;0.97;;;0.80;;
46505;SDS011;32220;49.808;9.968;2023-05-10T10:56:06;1.10;;;1.00;;
46505;SDS011;32220;49.808;9.968;2023-05-10T10:58:35;1.07;;;0.97;;
46505;SDS011;32220;49.808;9.968;2023-05-10T11:01:12;1.00;;;0.90;;
46505;SDS011;32220;49.808;9.968;2023-05-10T11:03:54;0.70;;;0.70;;
46505;SDS011;32220;49.808;9.968;2023-05-10T11:06:42;2.10;;;0.80;;
46505;SDS011;32220;49.808;9.968;2023-05-10T11:09:10;3.33;;;1.10;;
46505;SDS011;32220;49.808;9.968;2023-05-10T11:11:49;1.30;;;0.80;;
46505;SDS011;32220;49.808;9.968;2023-05-10T11:14:20;0.80;;;0.80;;
46505;SDS011;32220;49.808;9.968;2023-05-10T11:16:51;0.80;;;0.80;;
46505;SDS011;32220;49.808;9.968;2023-05-10T11:19:18;3.17;;;1.10;;
46505;SDS011;32220;49.808;9.968;2023-05-10T11:21:47;1.00;;;0.90;;
46505;SDS011;32220;49.808;9.968;2023-05-10T11:24:17;1.20;;;0.90;;
46505;SDS011;32220;49.808;9.968;2023-05-10T11:26:49;2.13;;;0.90;;
46505;SDS011;32220;49.808;9.968;2023-05-10T11:29:17;1.93;;;0.90;;
46505;SDS011;32220;49.808;9.968;2023-05-10T11:31:45;5.30;;;1.30;;
46505;SDS011;32220;49.808;9.968;2023-05-10T11:34:24;1.20;;;0.70;;
46505;SDS011;32220;49.808;9.968;2023-05-10T11:36:52;1.00;;;0.70;;
46505;SDS011;32220;49.808;9.968;2023-05-10T11:39:22;1.70;;;0.77;;
46505;SDS011;32220;49.808;9.968;2023-05-10T11:41:54;0.83;;;0.80;;
46505;SDS011;32220;49.808;9.968;2023-05-10T11:44:21;1.33;;;0.87;;
46505;SDS011;32220;49.808;9.968;2023-05-10T11:46:49;2.17;;;0.80;;
46505;SDS011;32220;49.808;9.968;2023-05-10T11:49:17;1.50;;;0.87;;
46505;SDS011;32220;49.808;9.968;2023-05-10T11:51:46;1.07;;;0.87;;
46505;SDS011;32220;49.808;9.968;2023-05-10T11:54:14;1.67;;;0.90;;
46505;SDS011;32220;49.808;9.968;2023-05-10T11:56:42;1.17;;;0.90;;
46505;SDS011;32220;49.808;9.968;2023-05-10T11:59:10;0.77;;;0.70;;
46505;SDS011;32220;49.808;9.968;2023-05-10T12:01:41;1.23;;;0.77;;
46505;SDS011;32220;49.808;9.968;2023-05-10T12:04:09;2.17;;;0.90;;
46505;SDS011;32220;49.808;9.968;2023-05-10T12:06:39;0.90;;;0.80;;
46505;SDS011;32220;49.808;9.968;2023-05-10T12:09:09;1.10;;;0.90;;
46505;SDS011;32220;49.808;9.968;2023-05-10T12:11:37;1.83;;;1.00;;
46505;SDS011;32220;49.808;9.968;2023-05-10T12:14:06;0.80;;;0.80;;
46505;SDS011;32220;49.808;9.968;2023-05-10T12:16:36;1.57;;;0.70;;
46505;SDS011;32220;49.808;9.968;2023-05-10T12:19:03;1.53;;;0.80;;
46505;SDS011;32220;49.808;9.968;2023-05-10T12:21:31;1.00;;;0.77;;
46505;SDS011;32220;49.808;9.968;2023-05-10T12:24:01;1.23;;;1.13;;
46505;SDS011;32220;49.808;9.968;2023-05-10T12:26:32;0.90;;;0.70;;
46505;SDS011;32220;49.808;9.968;2023-05-10T12:29:13;0.60;;;0.60;;
46505;SDS011;32220;49.808;9.968;2023-05-10T12:31:51;1.10;;;1.00;;
46505;SDS011;32220;49.808;9.968;2023-05-10T12:34:26;1.13;;;0.90;;
46505;SDS011;32220;49.808;9.968;2023-05-10T12:36:57;2.47;;;0.77;;
46505;SDS011;32220;49.808;9.968;2023-05-10T12:39:25;1.77;;;0.83;;
46505;SDS011;32220;49.808;9.968;2023-05-10T12:41:55;0.90;;;0.80;;
46505;SDS011;32220;49.808;9.968;2023-05-10T12:44:23;1.00;;;0.97;;
46505;SDS011;32220;49.808;9.968;2023-05-10T12:46:50;0.70;;;0.70;;
46505;SDS011;32220;49.808;9.968;2023-05-10T12:49:18;0.97;;;0.80;;
46505;SDS011;32220;49.808;9.968;2023-05-10T12:51:46;1.07;;;0.60;;
46505;SDS011;32220;49.808;9.968;2023-05-10T12:54:14;2.73;;;0.70;;
46505;SDS011;32220;49.808;9.968;2023-05-10T12:56:42;2.83;;;0.60;;
46505;SDS011;32220;49.808;9.968;2023-05-10T12:59:12;1.67;;;0.70;;
46505;SDS011;32220;49.808;9.968;2023-05-10T13:01:40;0.70;;;0.60;;
46505;SDS011;32220;49.808;9.968;2023-05-10T13:04:07;0.50;;;0.50;;
46505;SDS011;32220;49.808;9.968;2023-05-10T13:06:34;1.67;;;0.60;;
46505;SDS011;32220;49.808;9.968;2023-05-10T13:09:02;1.23;;;0.90;;
46505;SDS011;32220;49.808;9.968;2023-05-10T13:11:30;2.27;;;1.00;;
46505;SDS011;32220;49.808;9.968;2023-05-10T13:13:58;3.90;;;1.27;;
46505;SDS011;32220;49.808;9.968;2023-05-10T13:16:27;2.17;;;0.97;;
46505;SDS011;32220;49.808;9.968;2023-05-10T13:18:55;2.93;;;0.90;;
46505;SDS011;32220;49.808;9.968;2023-05-10T13:21:23;1.47;;;0.90;;
46505;SDS011;32220;49.808;9.968;2023-05-10T13:23:51;1.17;;;0.93;;
46505;SDS011;32220;49.808;9.968;2023-05-10T13:26:19;1.70;;;0.83;;
46505;SDS011;32220;49.808;9.968;2023-05-10T13:28:47;1.00;;;0.67;;
46505;SDS011;32220;49.808;9.968;2023-05-10T13:31:15;0.80;;;0.80;;
46505;SDS011;32220;49.808;9.968;2023-05-10T13:33:44;1.60;;;0.90;;
46505;SDS011;32220;49.808;9.968;2023-05-10T13:36:12;1.00;;;0.90;;
46505;SDS011;32220;49.808;9.968;2023-05-10T13:38:40;1.00;;;0.90;;
46505;SDS011;32220;49.808;9.968;2023-05-10T13:41:07;1.33;;;0.80;;
46505;SDS011;32220;49.808;9.968;2023-05-10T13:43:35;1.30;;;0.93;;
46505;SDS011;32220;49.808;9.968;2023-05-10T13:46:03;2.20;;;0.90;;
46505;SDS011;32220;49.808;9.968;2023-05-10T13:48:31;1.50;;;1.10;;
46505;SDS011;32220;49.808;9.968;2023-05-10T13:51:00;1.83;;;1.30;;
46505;SDS011;32220;49.808;9.968;2023-05-10T13:53:28;3.60;;;1.10;;
46505;SDS011;32220;49.808;9.968;2023-05-10T13:55:55;3.47;;;1.00;;
46505;SDS011;32220;49.808;9.968;2023-05-10T13:58:23;1.83;;;1.10;;
46505;SDS011;32220;49.808;9.968;2023-05-10T14:00:50;1.10;;;1.00;;
46505;SDS011;32220;49.808;9.968;2023-05-10T14:03:18;1.27;;;0.80;;
46505;SDS011;32220;49.808;9.968;2023-05-10T14:05:46;2.27;;;1.10;;
46505;SDS011;32220;49.808;9.968;2023-05-10T14:08:15;1.20;;;1.10;;
46505;SDS011;32220;49.808;9.968;2023-05-10T14:10:43;0.80;;;0.80;;
46505;SDS011;32220;49.808;9.968;2023-05-10T14:13:11;1.47;;;1.13;;
46505;SDS011;32220;49.808;9.968;2023-05-10T14:15:39;0.90;;;0.90;;
46505;SDS011;32220;49.808;9.968;2023-05-10T14:18:06;1.80;;;1.10;;
46505;SDS011;32220;49.808;9.968;2023-05-10T14:20:34;2.07;;;1.30;;
46505;SDS011;32220;49.808;9.968;2023-05-10T14:23:02;1.50;;;0.90;;
46505;SDS011;32220;49.808;9.968;2023-05-10T14:25:31;1.30;;;1.20;;
46505;SDS011;32220;49.808;9.968;2023-05-10T14:27:59;1.13;;;1.03;;
46505;SDS011;32220;49.808;9.968;2023-05-10T14:30:26;0.93;;;0.83;;
46505;SDS011;32220;49.808;9.968;2023-05-10T14:32:54;1.87;;;1.53;;
46505;SDS011;32220;49.808;9.968;2023-05-10T14:35:36;4.57;;;1.80;;
46505;SDS011;32220;49.808;9.968;2023-05-10T14:38:03;2.10;;;1.90;;
46505;SDS011;32220;49.808;9.968;2023-05-10T14:40:33;3.70;;;2.37;;
46505;SDS011;32220;49.808;9.968;2023-05-10T14:43:00;2.87;;;2.13;;
46505;SDS011;32220;49.808;9.968;2023-05-10T14:45:28;3.10;;;1.90;;
46505;SDS011;32220;49.808;9.968;2023-05-10T14:47:56;1.50;;;1.40;;
46505;SDS011;32220;49.808;9.968;2023-05-10T14:50:25;2.17;;;1.50;;
46505;SDS011;32220;49.808;9.968;2023-05-10T14:52:53;1.43;;;1.20;;
46505;SDS011;32220;49.808;9.968;2023-05-10T14:55:21;1.23;;;1.10;;
46505;SDS011;32220;49.808;9.968;2023-05-10T14:57:50;1.60;;;1.17;;
46505;SDS011;32220;49.808;9.968;2023-05-10T15:00:18;1.10;;;1.00;;
46505;SDS011;32220;49.808;9.968;2023-05-10T15:02:46;1.30;;;1.03;;
46505;SDS011;32220;49.808;9.968;2023-05-10T15:05:15;1.40;;;1.27;;
46505;SDS011;32220;49.808;9.968;2023-05-10T15:07:43;2.40;;;1.10;;